Albany, Texas
Current Conditions -  °F | °C
As of 6:15 AM on Sunday 23 Nov 2014 (Local Time) from KBKD Reporting Station
Clear Clear  
Wind Chill: 13°   Ceiling: Unl
Heat Index: 13°   Visibility: 7mi
Dew Point: 10°   Wind: 9mph
Humidity: 85%   Direction: 220°SW
Pressure: 29.57"   Gusts: NA
Location:  32.72°N, 99.3°W
Report Text: KBKD 231215Z AUTO 22008KT 7SM CLR 13/10 A2957 RMK AO2 T01250101
Loading
Personal Weather Stations






























Interactive Weather Map New forecast layout! Learn more

10-Day Weather Forecast

Advertisements
Track Severe Weather on mobile